KTUL/TUL METAR and TAF weather

Enter ICAO airport designator
Station Type Date Time Source
KTUL METAR 2022/05/23 14:53 UTC NOAA

KTUL 231453Z 10005KT 10SM OVC031 14/10 A3019 RMK AO2 LTG DSNT SE AND S SLP219 OCNL LTGICCC DSNT S CB DSNT S MOV NE T01440100 58001


Station Type Date Time Source
KTUL Decoded METAR 2022/05/23 14:53 UTC NOAA

TULSA INTERNATIONAL AIRPORT, OK, United States (KTUL) 36-12N 95-53W 207M
May 23, 2022 - 10:53 AM EDT / 2022.05.23 1453 UTC
Wind: from the E (100 degrees) at 6 MPH (5 KT):0
Visibility: 10 mile(s):0
Sky conditions: overcast
Weather: Cumulonimbus clouds, lightning observed
Temperature: 57.9 F (14.4 C)
Dew Point: 50.0 F (10.0 C)
Relative Humidity: 74%
Pressure (altimeter): 30.19 in. Hg (1022 hPa)
Pressure tendency: 0.00 inches (0.1 hPa) lower than three hours ago
ob: KTUL 231453Z 10005KT 10SM OVC031 14/10 A3019 RMK AO2 LTG DSNT SE AND S SLP219 OCNL LTGICCC DSNT S CB DSNT S MOV NE T01440100 58001
cycle: 15

Station Type Date Time Source
KTUL TAF 2022/05/23 15:36 UTC NOAA

TAF
AMD KTUL 231434Z 2315/2412 07007KT P6SM VCSH OVC025
TEMPO 2315/2318 5SM -TSRA BKN015CB
FM232100 12009KT P6SM VCSH BKN025 PROB30 2400/2406 5SM -TSRA BKN025CB
FM240600 VRB03KT 5SM -SHRA BKN015 PROB30 2406/2412 3SM -TSRA BKN012CB

Example: see airport list